sensor_id;sensor_type;location;lat;lon;timestamp;P1;durP1;ratioP1;P2;durP2;ratioP2
41719;SDS011;27405;53.316;-6.294;2023-05-19T00:01:56;18.25;;;9.93;;
41719;SDS011;27405;53.316;-6.294;2023-05-19T00:04:24;16.48;;;8.55;;
41719;SDS011;27405;53.316;-6.294;2023-05-19T00:06:51;17.08;;;9.00;;
41719;SDS011;27405;53.316;-6.294;2023-05-19T00:09:18;13.98;;;7.13;;
41719;SDS011;27405;53.316;-6.294;2023-05-19T00:11:44;13.82;;;6.97;;
41719;SDS011;27405;53.316;-6.294;2023-05-19T00:14:09;12.70;;;6.32;;
41719;SDS011;27405;53.316;-6.294;2023-05-19T00:16:35;12.00;;;6.10;;
41719;SDS011;27405;53.316;-6.294;2023-05-19T00:19:03;11.07;;;5.28;;
41719;SDS011;27405;53.316;-6.294;2023-05-19T00:21:29;9.85;;;4.68;;
41719;SDS011;27405;53.316;-6.294;2023-05-19T00:23:56;7.47;;;4.40;;
41719;SDS011;27405;53.316;-6.294;2023-05-19T00:26:22;9.60;;;5.35;;
41719;SDS011;27405;53.316;-6.294;2023-05-19T00:28:48;11.68;;;6.05;;
41719;SDS011;27405;53.316;-6.294;2023-05-19T00:31:14;13.80;;;7.05;;
41719;SDS011;27405;53.316;-6.294;2023-05-19T00:33:40;15.23;;;6.43;;
41719;SDS011;27405;53.316;-6.294;2023-05-19T00:36:06;10.50;;;5.28;;
41719;SDS011;27405;53.316;-6.294;2023-05-19T00:38:33;14.50;;;6.45;;
41719;SDS011;27405;53.316;-6.294;2023-05-19T00:41:00;15.25;;;6.43;;
41719;SDS011;27405;53.316;-6.294;2023-05-19T00:43:26;12.45;;;5.88;;
41719;SDS011;27405;53.316;-6.294;2023-05-19T00:45:53;12.73;;;5.85;;
41719;SDS011;27405;53.316;-6.294;2023-05-19T00:48:20;14.40;;;5.28;;
41719;SDS011;27405;53.316;-6.294;2023-05-19T00:50:46;11.45;;;5.15;;
41719;SDS011;27405;53.316;-6.294;2023-05-19T00:53:13;14.65;;;5.13;;
41719;SDS011;27405;53.316;-6.294;2023-05-19T00:55:40;14.50;;;5.25;;
41719;SDS011;27405;53.316;-6.294;2023-05-19T00:58:07;11.50;;;4.97;;
41719;SDS011;27405;53.316;-6.294;2023-05-19T01:00:34;14.10;;;5.32;;
41719;SDS011;27405;53.316;-6.294;2023-05-19T01:03:01;13.73;;;5.38;;
41719;SDS011;27405;53.316;-6.294;2023-05-19T01:05:27;12.88;;;5.10;;
41719;SDS011;27405;53.316;-6.294;2023-05-19T01:07:52;15.82;;;5.22;;
41719;SDS011;27405;53.316;-6.294;2023-05-19T01:10:20;15.52;;;4.85;;
41719;SDS011;27405;53.316;-6.294;2023-05-19T01:12:46;14.57;;;4.90;;
41719;SDS011;27405;53.316;-6.294;2023-05-19T01:15:13;14.75;;;4.53;;
41719;SDS011;27405;53.316;-6.294;2023-05-19T01:17:59;17.23;;;5.13;;
41719;SDS011;27405;53.316;-6.294;2023-05-19T01:25:46;22.42;;;5.50;;
41719;SDS011;27405;53.316;-6.294;2023-05-19T01:31:54;23.52;;;5.45;;
41719;SDS011;27405;53.316;-6.294;2023-05-19T01:34:23;21.27;;;5.00;;
41719;SDS011;27405;53.316;-6.294;2023-05-19T01:36:52;20.67;;;5.05;;
41719;SDS011;27405;53.316;-6.294;2023-05-19T01:39:20;20.25;;;5.32;;
41719;SDS011;27405;53.316;-6.294;2023-05-19T01:41:47;25.23;;;5.50;;
41719;SDS011;27405;53.316;-6.294;2023-05-19T01:44:13;22.95;;;5.50;;
41719;SDS011;27405;53.316;-6.294;2023-05-19T01:46:40;25.27;;;5.90;;
41719;SDS011;27405;53.316;-6.294;2023-05-19T01:49:06;24.38;;;6.03;;
41719;SDS011;27405;53.316;-6.294;2023-05-19T01:51:32;22.85;;;5.65;;
41719;SDS011;27405;53.316;-6.294;2023-05-19T01:53:58;26.92;;;5.45;;
41719;SDS011;27405;53.316;-6.294;2023-05-19T01:56:48;23.83;;;6.22;;
41719;SDS011;27405;53.316;-6.294;2023-05-19T01:59:48;31.75;;;7.20;;
41719;SDS011;27405;53.316;-6.294;2023-05-19T02:02:59;24.50;;;5.95;;
41719;SDS011;27405;53.316;-6.294;2023-05-19T02:05:37;23.83;;;6.80;;
41719;SDS011;27405;53.316;-6.294;2023-05-19T02:10:56;29.35;;;6.70;;
41719;SDS011;27405;53.316;-6.294;2023-05-19T02:13:32;34.70;;;7.75;;
41719;SDS011;27405;53.316;-6.294;2023-05-19T02:16:02;32.13;;;7.65;;
41719;SDS011;27405;53.316;-6.294;2023-05-19T02:18:31;30.05;;;7.25;;
41719;SDS011;27405;53.316;-6.294;2023-05-19T02:20:57;37.88;;;7.45;;
41719;SDS011;27405;53.316;-6.294;2023-05-19T02:23:24;32.15;;;7.90;;
41719;SDS011;27405;53.316;-6.294;2023-05-19T02:25:49;36.92;;;7.45;;
41719;SDS011;27405;53.316;-6.294;2023-05-19T02:28:15;34.00;;;7.47;;
41719;SDS011;27405;53.316;-6.294;2023-05-19T02:30:41;34.17;;;7.55;;
41719;SDS011;27405;53.316;-6.294;2023-05-19T02:33:07;35.10;;;8.30;;
41719;SDS011;27405;53.316;-6.294;2023-05-19T02:35:32;37.83;;;8.38;;
41719;SDS011;27405;53.316;-6.294;2023-05-19T02:37:58;35.80;;;8.48;;
41719;SDS011;27405;53.316;-6.294;2023-05-19T02:40:24;40.10;;;8.23;;
41719;SDS011;27405;53.316;-6.294;2023-05-19T02:42:49;38.95;;;8.30;;
41719;SDS011;27405;53.316;-6.294;2023-05-19T02:45:15;36.80;;;8.15;;
41719;SDS011;27405;53.316;-6.294;2023-05-19T02:47:40;46.78;;;9.32;;
41719;SDS011;27405;53.316;-6.294;2023-05-19T02:50:06;38.80;;;8.13;;
41719;SDS011;27405;53.316;-6.294;2023-05-19T02:52:32;37.03;;;8.10;;
41719;SDS011;27405;53.316;-6.294;2023-05-19T02:54:58;38.10;;;8.25;;
41719;SDS011;27405;53.316;-6.294;2023-05-19T02:57:24;38.67;;;7.45;;
41719;SDS011;27405;53.316;-6.294;2023-05-19T02:59:50;35.95;;;7.32;;
41719;SDS011;27405;53.316;-6.294;2023-05-19T03:02:16;37.15;;;8.10;;
41719;SDS011;27405;53.316;-6.294;2023-05-19T03:04:42;41.47;;;7.70;;
41719;SDS011;27405;53.316;-6.294;2023-05-19T03:07:08;42.38;;;8.68;;
41719;SDS011;27405;53.316;-6.294;2023-05-19T03:09:37;34.50;;;8.32;;
41719;SDS011;27405;53.316;-6.294;2023-05-19T03:12:03;41.33;;;8.65;;
41719;SDS011;27405;53.316;-6.294;2023-05-19T03:14:30;36.45;;;7.50;;
41719;SDS011;27405;53.316;-6.294;2023-05-19T03:16:57;40.30;;;8.82;;
41719;SDS011;27405;53.316;-6.294;2023-05-19T03:19:23;39.92;;;7.90;;
41719;SDS011;27405;53.316;-6.294;2023-05-19T03:21:49;34.65;;;8.32;;
41719;SDS011;27405;53.316;-6.294;2023-05-19T03:24:15;39.63;;;8.48;;
41719;SDS011;27405;53.316;-6.294;2023-05-19T03:26:42;36.88;;;9.50;;
41719;SDS011;27405;53.316;-6.294;2023-05-19T03:29:07;44.05;;;8.77;;
41719;SDS011;27405;53.316;-6.294;2023-05-19T03:31:33;39.55;;;8.73;;
41719;SDS011;27405;53.316;-6.294;2023-05-19T03:33:58;45.72;;;9.50;;
41719;SDS011;27405;53.316;-6.294;2023-05-19T03:36:24;41.15;;;9.13;;
41719;SDS011;27405;53.316;-6.294;2023-05-19T03:38:56;37.92;;;8.95;;
41719;SDS011;27405;53.316;-6.294;2023-05-19T03:41:24;48.88;;;9.45;;
41719;SDS011;27405;53.316;-6.294;2023-05-19T03:43:50;44.58;;;9.00;;
41719;SDS011;27405;53.316;-6.294;2023-05-19T03:46:16;41.03;;;8.50;;
41719;SDS011;27405;53.316;-6.294;2023-05-19T03:48:41;37.47;;;8.40;;
41719;SDS011;27405;53.316;-6.294;2023-05-19T03:51:07;40.75;;;9.07;;
41719;SDS011;27405;53.316;-6.294;2023-05-19T03:53:33;41.53;;;9.23;;
41719;SDS011;27405;53.316;-6.294;2023-05-19T03:55:59;46.17;;;9.50;;
41719;SDS011;27405;53.316;-6.294;2023-05-19T03:58:25;42.15;;;9.18;;
41719;SDS011;27405;53.316;-6.294;2023-05-19T04:00:50;39.33;;;8.73;;
41719;SDS011;27405;53.316;-6.294;2023-05-19T04:03:16;38.55;;;8.55;;
41719;SDS011;27405;53.316;-6.294;2023-05-19T04:05:42;42.53;;;8.77;;
41719;SDS011;27405;53.316;-6.294;2023-05-19T04:08:07;40.03;;;8.68;;
41719;SDS011;27405;53.316;-6.294;2023-05-19T04:10:33;36.25;;;8.95;;
41719;SDS011;27405;53.316;-6.294;2023-05-19T04:12:59;41.45;;;8.95;;
41719;SDS011;27405;53.316;-6.294;2023-05-19T04:15:24;44.17;;;9.15;;
41719;SDS011;27405;53.316;-6.294;2023-05-19T04:17:50;39.78;;;8.40;;
41719;SDS011;27405;53.316;-6.294;2023-05-19T04:20:16;43.00;;;8.80;;
41719;SDS011;27405;53.316;-6.294;2023-05-19T04:22:41;38.25;;;8.95;;
41719;SDS011;27405;53.316;-6.294;2023-05-19T04:25:07;41.38;;;8.63;;
41719;SDS011;27405;53.316;-6.294;2023-05-19T04:27:33;45.83;;;9.25;;
41719;SDS011;27405;53.316;-6.294;2023-05-19T04:30:03;42.78;;;9.55;;
41719;SDS011;27405;53.316;-6.294;2023-05-19T04:32:29;40.70;;;8.20;;
41719;SDS011;27405;53.316;-6.294;2023-05-19T04:34:55;39.20;;;8.52;;
41719;SDS011;27405;53.316;-6.294;2023-05-19T04:37:22;42.45;;;9.07;;
41719;SDS011;27405;53.316;-6.294;2023-05-19T04:39:50;39.40;;;9.13;;
41719;SDS011;27405;53.316;-6.294;2023-05-19T04:42:16;39.08;;;8.60;;
41719;SDS011;27405;53.316;-6.294;2023-05-19T04:44:43;42.58;;;8.38;;
41719;SDS011;27405;53.316;-6.294;2023-05-19T04:47:09;43.13;;;9.15;;
41719;SDS011;27405;53.316;-6.294;2023-05-19T04:49:35;44.67;;;8.75;;
41719;SDS011;27405;53.316;-6.294;2023-05-19T04:52:07;41.47;;;8.45;;
41719;SDS011;27405;53.316;-6.294;2023-05-19T04:54:37;43.70;;;9.07;;
41719;SDS011;27405;53.316;-6.294;2023-05-19T04:57:03;49.08;;;9.57;;
41719;SDS011;27405;53.316;-6.294;2023-05-19T04:59:29;42.80;;;8.45;;
41719;SDS011;27405;53.316;-6.294;2023-05-19T05:01:55;40.58;;;8.52;;
41719;SDS011;27405;53.316;-6.294;2023-05-19T05:04:22;35.83;;;7.80;;
41719;SDS011;27405;53.316;-6.294;2023-05-19T05:06:48;43.85;;;9.07;;
41719;SDS011;27405;53.316;-6.294;2023-05-19T05:09:14;42.38;;;7.88;;
41719;SDS011;27405;53.316;-6.294;2023-05-19T05:11:41;37.55;;;9.00;;
41719;SDS011;27405;53.316;-6.294;2023-05-19T05:14:07;43.25;;;8.93;;
41719;SDS011;27405;53.316;-6.294;2023-05-19T05:16:33;48.38;;;10.40;;
41719;SDS011;27405;53.316;-6.294;2023-05-19T05:19:02;38.95;;;8.70;;
41719;SDS011;27405;53.316;-6.294;2023-05-19T05:21:28;42.38;;;9.32;;
41719;SDS011;27405;53.316;-6.294;2023-05-19T05:23:54;38.83;;;8.85;;
41719;SDS011;27405;53.316;-6.294;2023-05-19T05:26:20;36.47;;;8.85;;
41719;SDS011;27405;53.316;-6.294;2023-05-19T05:28:48;39.50;;;9.00;;
41719;SDS011;27405;53.316;-6.294;2023-05-19T05:31:14;42.42;;;8.55;;
41719;SDS011;27405;53.316;-6.294;2023-05-19T05:33:41;43.22;;;8.45;;
41719;SDS011;27405;53.316;-6.294;2023-05-19T05:36:07;44.78;;;9.90;;
41719;SDS011;27405;53.316;-6.294;2023-05-19T05:38:33;42.88;;;9.32;;
41719;SDS011;27405;53.316;-6.294;2023-05-19T05:41:00;45.88;;;9.35;;
41719;SDS011;27405;53.316;-6.294;2023-05-19T05:43:27;48.10;;;10.02;;
41719;SDS011;27405;53.316;-6.294;2023-05-19T05:45:53;46.75;;;9.80;;
41719;SDS011;27405;53.316;-6.294;2023-05-19T05:48:19;42.85;;;9.18;;
41719;SDS011;27405;53.316;-6.294;2023-05-19T05:50:45;40.38;;;9.35;;
41719;SDS011;27405;53.316;-6.294;2023-05-19T05:53:14;36.22;;;9.43;;
41719;SDS011;27405;53.316;-6.294;2023-05-19T05:55:44;46.97;;;11.00;;
41719;SDS011;27405;53.316;-6.294;2023-05-19T05:58:13;47.80;;;11.20;;
41719;SDS011;27405;53.316;-6.294;2023-05-19T06:00:41;46.30;;;11.65;;
41719;SDS011;27405;53.316;-6.294;2023-05-19T06:03:07;41.17;;;9.93;;
41719;SDS011;27405;53.316;-6.294;2023-05-19T06:05:33;43.38;;;10.02;;
41719;SDS011;27405;53.316;-6.294;2023-05-19T06:07:59;38.92;;;9.77;;
41719;SDS011;27405;53.316;-6.294;2023-05-19T06:10:26;46.70;;;10.68;;
41719;SDS011;27405;53.316;-6.294;2023-05-19T06:12:52;37.10;;;9.10;;
41719;SDS011;27405;53.316;-6.294;2023-05-19T06:15:18;44.58;;;8.70;;
41719;SDS011;27405;53.316;-6.294;2023-05-19T06:17:43;50.08;;;9.65;;
41719;SDS011;27405;53.316;-6.294;2023-05-19T06:20:10;42.80;;;9.90;;
41719;SDS011;27405;53.316;-6.294;2023-05-19T06:22:37;42.80;;;9.57;;
41719;SDS011;27405;53.316;-6.294;2023-05-19T06:25:02;38.22;;;9.23;;
41719;SDS011;27405;53.316;-6.294;2023-05-19T06:27:29;48.03;;;10.45;;
41719;SDS011;27405;53.316;-6.294;2023-05-19T06:29:54;39.90;;;9.70;;
41719;SDS011;27405;53.316;-6.294;2023-05-19T06:32:20;46.42;;;10.30;;
41719;SDS011;27405;53.316;-6.294;2023-05-19T06:34:46;42.75;;;9.75;;
41719;SDS011;27405;53.316;-6.294;2023-05-19T06:37:18;39.92;;;9.05;;
41719;SDS011;27405;53.316;-6.294;2023-05-19T06:39:46;39.28;;;9.82;;
41719;SDS011;27405;53.316;-6.294;2023-05-19T06:42:15;42.97;;;10.10;;
41719;SDS011;27405;53.316;-6.294;2023-05-19T06:44:41;43.40;;;10.18;;
41719;SDS011;27405;53.316;-6.294;2023-05-19T06:47:06;37.67;;;9.20;;
41719;SDS011;27405;53.316;-6.294;2023-05-19T06:49:32;47.90;;;9.45;;
41719;SDS011;27405;53.316;-6.294;2023-05-19T06:51:57;42.92;;;10.05;;
41719;SDS011;27405;53.316;-6.294;2023-05-19T06:54:23;40.15;;;10.57;;
41719;SDS011;27405;53.316;-6.294;2023-05-19T06:56:49;44.10;;;10.90;;
41719;SDS011;27405;53.316;-6.294;2023-05-19T06:59:14;42.40;;;10.32;;
41719;SDS011;27405;53.316;-6.294;2023-05-19T07:01:40;40.05;;;10.05;;
41719;SDS011;27405;53.316;-6.294;2023-05-19T07:04:06;46.35;;;9.70;;
41719;SDS011;27405;53.316;-6.294;2023-05-19T07:06:31;44.97;;;9.38;;
41719;SDS011;27405;53.316;-6.294;2023-05-19T07:08:57;37.15;;;9.32;;
41719;SDS011;27405;53.316;-6.294;2023-05-19T07:11:23;46.75;;;10.98;;
41719;SDS011;27405;53.316;-6.294;2023-05-19T07:13:50;43.08;;;9.93;;
41719;SDS011;27405;53.316;-6.294;2023-05-19T07:16:15;42.13;;;10.10;;
41719;SDS011;27405;53.316;-6.294;2023-05-19T07:18:41;42.67;;;10.60;;
41719;SDS011;27405;53.316;-6.294;2023-05-19T07:21:07;43.00;;;10.25;;
41719;SDS011;27405;53.316;-6.294;2023-05-19T07:23:32;38.83;;;10.45;;
41719;SDS011;27405;53.316;-6.294;2023-05-19T07:25:58;45.55;;;9.75;;
41719;SDS011;27405;53.316;-6.294;2023-05-19T07:28:23;46.22;;;9.43;;
41719;SDS011;27405;53.316;-6.294;2023-05-19T07:30:49;38.60;;;8.05;;
41719;SDS011;27405;53.316;-6.294;2023-05-19T07:33:15;37.83;;;8.90;;
41719;SDS011;27405;53.316;-6.294;2023-05-19T07:35:41;48.90;;;9.93;;
41719;SDS011;27405;53.316;-6.294;2023-05-19T07:38:08;41.38;;;8.52;;
41719;SDS011;27405;53.316;-6.294;2023-05-19T07:40:34;37.83;;;8.73;;
41719;SDS011;27405;53.316;-6.294;2023-05-19T07:42:59;42.03;;;9.60;;
41719;SDS011;27405;53.316;-6.294;2023-05-19T07:45:25;40.70;;;8.70;;
41719;SDS011;27405;53.316;-6.294;2023-05-19T07:47:52;43.60;;;10.20;;
41719;SDS011;27405;53.316;-6.294;2023-05-19T07:50:18;40.03;;;9.43;;
41719;SDS011;27405;53.316;-6.294;2023-05-19T07:52:44;40.83;;;8.65;;
41719;SDS011;27405;53.316;-6.294;2023-05-19T07:55:09;39.28;;;8.57;;
41719;SDS011;27405;53.316;-6.294;2023-05-19T07:57:35;38.55;;;8.77;;
41719;SDS011;27405;53.316;-6.294;2023-05-19T08:00:01;39.28;;;8.82;;
41719;SDS011;27405;53.316;-6.294;2023-05-19T08:02:31;45.03;;;9.25;;
41719;SDS011;27405;53.316;-6.294;2023-05-19T08:04:57;35.13;;;7.93;;
41719;SDS011;27405;53.316;-6.294;2023-05-19T08:07:23;46.25;;;9.27;;
41719;SDS011;27405;53.316;-6.294;2023-05-19T08:09:49;41.08;;;9.20;;
41719;SDS011;27405;53.316;-6.294;2023-05-19T08:12:15;38.20;;;8.27;;
41719;SDS011;27405;53.316;-6.294;2023-05-19T08:14:40;44.85;;;9.05;;
41719;SDS011;27405;53.316;-6.294;2023-05-19T08:17:06;43.58;;;8.75;;
41719;SDS011;27405;53.316;-6.294;2023-05-19T08:19:32;41.53;;;8.77;;
41719;SDS011;27405;53.316;-6.294;2023-05-19T08:21:57;38.78;;;8.50;;
41719;SDS011;27405;53.316;-6.294;2023-05-19T08:24:25;37.00;;;8.23;;
41719;SDS011;27405;53.316;-6.294;2023-05-19T08:26:53;33.28;;;8.63;;
41719;SDS011;27405;53.316;-6.294;2023-05-19T08:29:19;37.17;;;8.55;;
41719;SDS011;27405;53.316;-6.294;2023-05-19T08:31:45;36.22;;;8.15;;
41719;SDS011;27405;53.316;-6.294;2023-05-19T08:34:11;39.60;;;8.02;;
41719;SDS011;27405;53.316;-6.294;2023-05-19T08:36:36;40.33;;;8.63;;
41719;SDS011;27405;53.316;-6.294;2023-05-19T08:39:03;40.13;;;8.57;;
41719;SDS011;27405;53.316;-6.294;2023-05-19T08:41:28;41.78;;;8.70;;
41719;SDS011;27405;53.316;-6.294;2023-05-19T08:43:54;39.67;;;8.95;;
41719;SDS011;27405;53.316;-6.294;2023-05-19T08:46:20;35.10;;;8.35;;
41719;SDS011;27405;53.316;-6.294;2023-05-19T08:48:48;36.20;;;8.53;;
41719;SDS011;27405;53.316;-6.294;2023-05-19T08:53:53;37.15;;;8.57;;
41719;SDS011;27405;53.316;-6.294;2023-05-19T08:56:24;40.47;;;8.30;;
41719;SDS011;27405;53.316;-6.294;2023-05-19T08:58:50;34.90;;;8.40;;
41719;SDS011;27405;53.316;-6.294;2023-05-19T09:01:17;34.63;;;7.72;;
41719;SDS011;27405;53.316;-6.294;2023-05-19T09:03:47;28.70;;;7.22;;
41719;SDS011;27405;53.316;-6.294;2023-05-19T09:06:13;32.80;;;7.30;;
41719;SDS011;27405;53.316;-6.294;2023-05-19T09:08:40;38.65;;;8.35;;
41719;SDS011;27405;53.316;-6.294;2023-05-19T09:11:07;33.55;;;7.55;;
41719;SDS011;27405;53.316;-6.294;2023-05-19T09:13:33;37.60;;;8.15;;
41719;SDS011;27405;53.316;-6.294;2023-05-19T09:15:59;30.20;;;7.55;;
41719;SDS011;27405;53.316;-6.294;2023-05-19T09:18:26;37.88;;;8.80;;
41719;SDS011;27405;53.316;-6.294;2023-05-19T09:20:55;33.42;;;8.80;;
41719;SDS011;27405;53.316;-6.294;2023-05-19T09:23:29;37.22;;;8.30;;
41719;SDS011;27405;53.316;-6.294;2023-05-19T09:26:00;34.72;;;7.75;;
41719;SDS011;27405;53.316;-6.294;2023-05-19T09:33:46;31.10;;;7.63;;
41719;SDS011;27405;53.316;-6.294;2023-05-19T09:36:12;29.23;;;7.50;;
41719;SDS011;27405;53.316;-6.294;2023-05-19T09:38:38;30.45;;;7.28;;
41719;SDS011;27405;53.316;-6.294;2023-05-19T09:41:05;32.92;;;7.00;;
41719;SDS011;27405;53.316;-6.294;2023-05-19T09:43:32;28.02;;;6.97;;
41719;SDS011;27405;53.316;-6.294;2023-05-19T09:45:59;30.23;;;7.43;;
41719;SDS011;27405;53.316;-6.294;2023-05-19T09:48:28;35.15;;;7.78;;
41719;SDS011;27405;53.316;-6.294;2023-05-19T09:50:54;30.02;;;6.90;;
41719;SDS011;27405;53.316;-6.294;2023-05-19T09:53:21;30.90;;;7.10;;
41719;SDS011;27405;53.316;-6.294;2023-05-19T09:55:49;30.70;;;7.40;;
41719;SDS011;27405;53.316;-6.294;2023-05-19T09:58:19;28.15;;;8.00;;
41719;SDS011;27405;53.316;-6.294;2023-05-19T10:00:45;35.28;;;7.53;;
41719;SDS011;27405;53.316;-6.294;2023-05-19T10:03:12;37.22;;;7.90;;
41719;SDS011;27405;53.316;-6.294;2023-05-19T10:05:38;30.23;;;7.18;;
41719;SDS011;27405;53.316;-6.294;2023-05-19T10:08:05;28.23;;;7.30;;
41719;SDS011;27405;53.316;-6.294;2023-05-19T10:10:34;30.80;;;7.85;;
41719;SDS011;27405;53.316;-6.294;2023-05-19T10:13:04;33.58;;;7.35;;
41719;SDS011;27405;53.316;-6.294;2023-05-19T10:15:30;31.75;;;8.45;;
41719;SDS011;27405;53.316;-6.294;2023-05-19T10:17:56;34.60;;;7.82;;
41719;SDS011;27405;53.316;-6.294;2023-05-19T10:20:23;34.03;;;8.02;;
41719;SDS011;27405;53.316;-6.294;2023-05-19T10:22:51;35.90;;;8.00;;
41719;SDS011;27405;53.316;-6.294;2023-05-19T10:25:16;33.55;;;7.65;;
41719;SDS011;27405;53.316;-6.294;2023-05-19T10:27:52;33.35;;;8.63;;
41719;SDS011;27405;53.316;-6.294;2023-05-19T10:30:35;32.53;;;8.30;;
41719;SDS011;27405;53.316;-6.294;2023-05-19T10:33:08;27.50;;;7.45;;
41719;SDS011;27405;53.316;-6.294;2023-05-19T10:35:52;29.40;;;7.50;;
41719;SDS011;27405;53.316;-6.294;2023-05-19T10:38:30;30.27;;;7.28;;
41719;SDS011;27405;53.316;-6.294;2023-05-19T10:46:13;28.25;;;7.32;;
41719;SDS011;27405;53.316;-6.294;2023-05-19T10:48:42;26.52;;;7.10;;
41719;SDS011;27405;53.316;-6.294;2023-05-19T10:51:09;29.08;;;7.35;;
41719;SDS011;27405;53.316;-6.294;2023-05-19T10:53:37;28.92;;;7.13;;
41719;SDS011;27405;53.316;-6.294;2023-05-19T10:56:05;27.55;;;6.93;;
41719;SDS011;27405;53.316;-6.294;2023-05-19T11:01:07;31.00;;;7.65;;
41719;SDS011;27405;53.316;-6.294;2023-05-19T11:03:43;24.40;;;6.32;;
41719;SDS011;27405;53.316;-6.294;2023-05-19T11:08:44;25.73;;;6.63;;
41719;SDS011;27405;53.316;-6.294;2023-05-19T11:11:15;25.05;;;7.15;;
41719;SDS011;27405;53.316;-6.294;2023-05-19T11:13:50;25.52;;;6.95;;
41719;SDS011;27405;53.316;-6.294;2023-05-19T11:16:26;28.27;;;6.65;;
41719;SDS011;27405;53.316;-6.294;2023-05-19T11:18:59;25.88;;;6.85;;
41719;SDS011;27405;53.316;-6.294;2023-05-19T11:24:34;25.30;;;6.40;;
41719;SDS011;27405;53.316;-6.294;2023-05-19T11:29:45;25.75;;;6.32;;
41719;SDS011;27405;53.316;-6.294;2023-05-19T11:32:12;29.65;;;7.00;;
41719;SDS011;27405;53.316;-6.294;2023-05-19T11:34:38;27.33;;;6.57;;
41719;SDS011;27405;53.316;-6.294;2023-05-19T11:37:07;26.55;;;6.82;;
41719;SDS011;27405;53.316;-6.294;2023-05-19T11:39:33;27.60;;;7.18;;
41719;SDS011;27405;53.316;-6.294;2023-05-19T11:41:59;29.33;;;6.70;;
41719;SDS011;27405;53.316;-6.294;2023-05-19T11:44:25;25.80;;;6.75;;
41719;SDS011;27405;53.316;-6.294;2023-05-19T11:46:51;22.35;;;6.47;;
41719;SDS011;27405;53.316;-6.294;2023-05-19T11:49:17;23.40;;;6.80;;
41719;SDS011;27405;53.316;-6.294;2023-05-19T11:51:43;25.13;;;6.47;;
41719;SDS011;27405;53.316;-6.294;2023-05-19T11:54:10;26.67;;;6.05;;
41719;SDS011;27405;53.316;-6.294;2023-05-19T11:56:40;25.45;;;6.80;;
41719;SDS011;27405;53.316;-6.294;2023-05-19T11:59:09;22.20;;;6.43;;
41719;SDS011;27405;53.316;-6.294;2023-05-19T12:01:35;26.73;;;6.43;;
41719;SDS011;27405;53.316;-6.294;2023-05-19T12:04:01;21.90;;;5.72;;
41719;SDS011;27405;53.316;-6.294;2023-05-19T12:06:28;24.75;;;6.05;;
41719;SDS011;27405;53.316;-6.294;2023-05-19T12:08:54;23.30;;;6.07;;
41719;SDS011;27405;53.316;-6.294;2023-05-19T12:11:20;23.67;;;6.25;;
41719;SDS011;27405;53.316;-6.294;2023-05-19T12:13:46;25.85;;;6.20;;
41719;SDS011;27405;53.316;-6.294;2023-05-19T12:16:14;24.90;;;6.65;;
41719;SDS011;27405;53.316;-6.294;2023-05-19T12:18:39;24.98;;;7.07;;
41719;SDS011;27405;53.316;-6.294;2023-05-19T12:21:06;24.95;;;6.75;;
41719;SDS011;27405;53.316;-6.294;2023-05-19T12:23:31;19.20;;;5.55;;
41719;SDS011;27405;53.316;-6.294;2023-05-19T12:25:58;27.55;;;6.43;;
41719;SDS011;27405;53.316;-6.294;2023-05-19T12:28:25;24.73;;;6.50;;
41719;SDS011;27405;53.316;-6.294;2023-05-19T12:30:50;21.60;;;5.72;;
41719;SDS011;27405;53.316;-6.294;2023-05-19T12:33:17;24.30;;;5.97;;
41719;SDS011;27405;53.316;-6.294;2023-05-19T12:35:43;24.85;;;6.35;;
41719;SDS011;27405;53.316;-6.294;2023-05-19T12:38:10;19.75;;;5.60;;
41719;SDS011;27405;53.316;-6.294;2023-05-19T12:40:36;21.08;;;5.75;;
41719;SDS011;27405;53.316;-6.294;2023-05-19T12:43:03;24.08;;;6.10;;
41719;SDS011;27405;53.316;-6.294;2023-05-19T12:45:35;20.30;;;5.82;;
41719;SDS011;27405;53.316;-6.294;2023-05-19T12:48:03;28.02;;;6.20;;
41719;SDS011;27405;53.316;-6.294;2023-05-19T12:50:30;21.45;;;6.18;;
41719;SDS011;27405;53.316;-6.294;2023-05-19T12:52:56;23.77;;;6.22;;
41719;SDS011;27405;53.316;-6.294;2023-05-19T12:55:23;26.27;;;6.40;;
41719;SDS011;27405;53.316;-6.294;2023-05-19T12:57:50;21.05;;;5.55;;
41719;SDS011;27405;53.316;-6.294;2023-05-19T13:00:21;23.85;;;6.70;;
41719;SDS011;27405;53.316;-6.294;2023-05-19T13:02:59;20.85;;;5.63;;
41719;SDS011;27405;53.316;-6.294;2023-05-19T13:05:29;21.80;;;6.05;;
41719;SDS011;27405;53.316;-6.294;2023-05-19T13:08:19;20.70;;;5.75;;
41719;SDS011;27405;53.316;-6.294;2023-05-19T13:10:45;19.57;;;5.33;;
41719;SDS011;27405;53.316;-6.294;2023-05-19T13:13:11;21.50;;;5.78;;
41719;SDS011;27405;53.316;-6.294;2023-05-19T13:15:46;21.80;;;6.28;;
41719;SDS011;27405;53.316;-6.294;2023-05-19T13:18:12;21.17;;;6.05;;
41719;SDS011;27405;53.316;-6.294;2023-05-19T13:20:39;24.13;;;6.25;;
41719;SDS011;27405;53.316;-6.294;2023-05-19T13:23:05;21.73;;;5.90;;
41719;SDS011;27405;53.316;-6.294;2023-05-19T13:25:32;24.52;;;6.03;;
41719;SDS011;27405;53.316;-6.294;2023-05-19T13:27:58;23.45;;;6.40;;
41719;SDS011;27405;53.316;-6.294;2023-05-19T13:30:26;22.70;;;6.13;;
41719;SDS011;27405;53.316;-6.294;2023-05-19T13:32:52;24.17;;;5.97;;
41719;SDS011;27405;53.316;-6.294;2023-05-19T13:35:17;18.75;;;5.82;;
41719;SDS011;27405;53.316;-6.294;2023-05-19T13:37:44;21.40;;;6.00;;
41719;SDS011;27405;53.316;-6.294;2023-05-19T13:40:10;21.38;;;6.35;;
41719;SDS011;27405;53.316;-6.294;2023-05-19T13:42:37;18.98;;;5.68;;
41719;SDS011;27405;53.316;-6.294;2023-05-19T13:45:03;22.42;;;5.50;;
41719;SDS011;27405;53.316;-6.294;2023-05-19T13:47:29;19.40;;;5.60;;
41719;SDS011;27405;53.316;-6.294;2023-05-19T13:49:54;19.95;;;5.70;;
41719;SDS011;27405;53.316;-6.294;2023-05-19T13:52:20;18.17;;;5.78;;
41719;SDS011;27405;53.316;-6.294;2023-05-19T13:54:46;21.35;;;6.00;;
41719;SDS011;27405;53.316;-6.294;2023-05-19T13:57:13;23.83;;;6.22;;
41719;SDS011;27405;53.316;-6.294;2023-05-19T13:59:39;20.85;;;5.85;;
41719;SDS011;27405;53.316;-6.294;2023-05-19T14:02:06;20.80;;;5.88;;
41719;SDS011;27405;53.316;-6.294;2023-05-19T14:04:34;17.45;;;5.97;;
41719;SDS011;27405;53.316;-6.294;2023-05-19T14:07:02;21.02;;;5.40;;
41719;SDS011;27405;53.316;-6.294;2023-05-19T14:09:28;20.58;;;5.47;;
41719;SDS011;27405;53.316;-6.294;2023-05-19T14:11:54;18.52;;;5.10;;
41719;SDS011;27405;53.316;-6.294;2023-05-19T14:14:19;20.17;;;5.93;;
41719;SDS011;27405;53.316;-6.294;2023-05-19T14:16:45;22.77;;;6.22;;
41719;SDS011;27405;53.316;-6.294;2023-05-19T14:19:11;20.23;;;5.75;;
41719;SDS011;27405;53.316;-6.294;2023-05-19T14:21:36;24.75;;;6.55;;
41719;SDS011;27405;53.316;-6.294;2023-05-19T14:24:02;20.70;;;5.93;;
41719;SDS011;27405;53.316;-6.294;2023-05-19T14:26:28;23.10;;;6.30;;
41719;SDS011;27405;53.316;-6.294;2023-05-19T14:28:54;19.17;;;5.20;;
41719;SDS011;27405;53.316;-6.294;2023-05-19T14:31:21;19.02;;;5.47;;
41719;SDS011;27405;53.316;-6.294;2023-05-19T14:33:46;19.60;;;5.38;;
41719;SDS011;27405;53.316;-6.294;2023-05-19T14:36:12;21.05;;;5.50;;
41719;SDS011;27405;53.316;-6.294;2023-05-19T14:38:38;21.63;;;5.72;;
41719;SDS011;27405;53.316;-6.294;2023-05-19T14:41:04;19.88;;;5.63;;
41719;SDS011;27405;53.316;-6.294;2023-05-19T14:43:30;18.45;;;5.93;;
41719;SDS011;27405;53.316;-6.294;2023-05-19T14:45:56;20.70;;;5.95;;
41719;SDS011;27405;53.316;-6.294;2023-05-19T14:48:22;20.33;;;5.45;;
41719;SDS011;27405;53.316;-6.294;2023-05-19T14:50:47;18.25;;;6.03;;
41719;SDS011;27405;53.316;-6.294;2023-05-19T14:53:13;19.90;;;5.72;;
41719;SDS011;27405;53.316;-6.294;2023-05-19T14:55:40;19.48;;;5.80;;
41719;SDS011;27405;53.316;-6.294;2023-05-19T14:58:05;17.50;;;5.78;;